Time;durP1;ratioP1;P1;durP2;ratioP2;P2;SDS_P1;SDS_P2;PMS_P1;PMS_P2;Temp;Humidity;BMP_temperature;BMP_pressure;BME280_temperature;BME280_humidity;BME280_pressure;Samples;Min_cycle;Max_cycle;Signal;HPM_P1;HPM_P2
2022/01/15 00:01:15;;;;;;;43.03;5.90;;;;;;;0.24;100.00;102867.34;5085067;28;20390;-75
2022/01/15 00:03:40;;;;;;;32.13;7.33;;;;;;;0.22;100.00;102860.44;5084686;28;20109;-75
2022/01/15 00:06:06;;;;;;;37.73;6.47;;;;;;;0.18;100.00;102862.28;5086526;28;20032;-75
2022/01/15 00:08:31;;;;;;;39.30;5.90;;;;;;;0.07;100.00;102866.97;5067995;28;20325;-75
2022/01/15 00:10:57;;;;;;;50.85;9.02;;;;;;;0.11;100.00;102882.59;5067522;28;20032;-75
2022/01/15 00:13:28;;;;;;;46.20;7.97;;;;;;;0.13;100.00;102879.94;5085784;28;20036;-75
2022/01/15 00:16:27;;;;;;;49.65;7.75;;;;;;;0.17;100.00;102884.19;5084506;28;20120;-75
2022/01/15 00:19:03;;;;;;;26.08;5.75;;;;;;;0.14;100.00;102868.50;5085823;28;20056;-74
2022/01/15 00:21:29;;;;;;;34.38;7.45;;;;;;;0.10;100.00;102864.25;5084754;28;20059;-74
2022/01/15 00:23:54;;;;;;;37.08;6.43;;;;;;;0.14;100.00;102879.00;5084262;28;20063;-75
2022/01/15 00:26:20;;;;;;;44.63;7.63;;;;;;;0.07;100.00;102873.09;5084452;28;20570;-74
2022/01/15 00:28:45;;;;;;;34.80;6.75;;;;;;;-0.07;100.00;102862.97;5067475;28;20063;-75
2022/01/15 00:31:11;;;;;;;33.10;5.75;;;;;;;-0.15;100.00;102853.56;5084743;28;20024;-74
2022/01/15 00:33:36;;;;;;;47.42;6.20;;;;;;;-0.18;100.00;102859.75;5084285;28;20028;-75
2022/01/15 00:36:02;;;;;;;42.75;6.30;;;;;;;-0.27;100.00;102849.50;5067464;28;20028;-74
2022/01/15 00:38:28;;;;;;;44.65;7.20;;;;;;;-0.25;100.00;102852.97;5084945;28;20379;-75
2022/01/15 00:40:54;;;;;;;43.92;6.72;;;;;;;-0.18;100.00;102854.50;5067594;28;20051;-75
2022/01/15 00:43:20;;;;;;;47.00;5.57;;;;;;;-0.14;100.00;102866.66;5084516;28;20032;-75
2022/01/15 00:45:46;;;;;;;45.42;7.43;;;;;;;-0.03;100.00;102880.34;5067345;28;20031;-75
2022/01/15 00:48:12;;;;;;;31.33;5.30;;;;;;;-0.01;100.00;102875.91;5084316;28;20036;-75
2022/01/15 00:50:38;;;;;;;39.80;6.13;;;;;;;-0.04;100.00;102867.28;5085228;28;20040;-76
2022/01/15 00:53:03;;;;;;;47.40;7.15;;;;;;;-0.07;100.00;102873.47;5085466;28;20069;-76
2022/01/15 00:55:29;;;;;;;33.40;5.72;;;;;;;0.01;100.00;102885.53;5067249;28;20032;-75
2022/01/15 00:57:54;;;;;;;62.53;6.63;;;;;;;-0.06;100.00;102874.31;5085279;28;20071;-74
2022/01/15 01:00:22;;;;;;;38.38;6.53;;;;;;;-0.16;100.00;102863.22;5067308;28;20073;-74
2022/01/15 01:02:48;;;;;;;31.73;5.38;;;;;;;-0.18;100.00;102865.03;5082318;28;20036;-76
2022/01/15 01:05:15;;;;;;;39.40;6.00;;;;;;;-0.20;100.00;102866.81;5082109;28;20039;-76
2022/01/15 01:07:41;;;;;;;43.97;6.18;;;;;;;-0.08;100.00;102892.75;5082103;28;20020;-74
2022/01/15 01:13:10;;;;;;;27.17;6.03;;;;;;;-0.19;100.00;102868.53;5084042;28;20032;-76
2022/01/15 01:23:29;;;;;;;39.78;6.50;;;;;;;-0.21;100.00;102878.25;5084439;28;20036;-74
2022/01/15 01:26:06;;;;;;;42.63;7.93;;;;;;;-0.31;100.00;102860.97;5087283;28;20474;-76
2022/01/15 01:28:37;;;;;;;32.75;5.80;;;;;;;-0.41;100.00;102835.91;5085880;28;20040;-76
2022/01/15 01:31:20;;;;;;;50.00;8.68;;;;;;;-0.50;100.00;102821.25;5079149;28;20583;-77
2022/01/15 01:33:50;;;;;;;37.20;7.85;;;;;;;-0.59;100.00;102827.59;5085867;28;20537;-74
2022/01/15 01:36:25;;;;;;;39.08;7.10;;;;;;;-0.72;100.00;102821.81;5085605;28;20379;-74
2022/01/15 01:38:58;;;;;;;37.63;6.10;;;;;;;-0.81;100.00;102815.94;5087489;28;20626;-74
2022/01/15 01:41:24;;;;;;;38.33;4.85;;;;;;;-0.87;100.00;102809.06;5070757;28;20047;-75
2022/01/15 01:43:56;;;;;;;41.97;5.68;;;;;;;-0.86;100.00;102816.91;5070268;28;20220;-75
2022/01/15 01:48:53;;;;;;;32.40;7.60;;;;;;;-0.88;100.00;102821.31;5087345;28;20096;-74
2022/01/15 01:51:30;;;;;;;45.15;5.53;;;;;;;-0.91;100.00;102824.03;5088688;28;20101;-75
2022/01/15 01:53:57;;;;;;;50.97;7.32;;;;;;;-0.91;100.00;102837.13;5086150;28;20043;-74
2022/01/15 01:56:22;;;;;;;50.42;6.43;;;;;;;-0.97;100.00;102837.28;5070387;28;20123;-76
2022/01/15 01:58:48;;;;;;;45.50;7.53;;;;;;;-0.81;100.00;102874.50;5086689;28;20131;-75
2022/01/15 02:01:14;;;;;;;34.33;7.88;;;;;;;-0.85;100.00;102862.34;5087378;28;20036;-75
2022/01/15 02:03:39;;;;;;;44.22;6.65;;;;;;;-0.93;100.00;102851.19;5067063;28;20016;-75
2022/01/15 02:06:05;;;;;;;42.30;6.05;;;;;;;-0.91;100.00;102865.97;5069989;28;20031;-74
2022/01/15 02:08:36;;;;;;;35.63;6.53;;;;;;;-0.81;100.00;102879.72;5087345;28;20107;-74
2022/01/15 02:11:03;;;;;;;38.60;6.32;;;;;;;-0.66;100.00;102887.25;5081673;28;20036;-75
2022/01/15 02:13:29;;;;;;;48.72;7.97;;;;;;;-0.71;100.00;102870.72;5086898;28;20081;-75
2022/01/15 02:16:00;;;;;;;;;;;;;;;-0.66;100.00;102883.72;5088594;28;20082;-74
2022/01/15 02:18:26;;;;;;;35.72;6.90;;;;;;;-0.69;100.00;102875.94;5086962;28;19923;-75
2022/01/15 02:23:32;;;;;;;44.45;6.95;;;;;;;-0.76;100.00;102892.75;5086825;28;20828;-74
2022/01/15 02:23:46;;;;;;;33.97;5.80;;;;;;;-0.82;100.00;102893.75;5087459;28;20137;-74
2022/01/15 02:26:23;;;;;;;38.70;7.28;;;;;;;-0.88;100.00;102873.75;5088086;28;20171;-74
2022/01/15 02:29:01;;;;;;;34.70;6.10;;;;;;;-0.78;100.00;102884.03;5068023;28;20036;-76
2022/01/15 02:31:28;;;;;;;39.95;7.22;;;;;;;-0.70;100.00;102892.59;5084434;28;20119;-76
2022/01/15 02:33:56;;;;;;;40.97;6.68;;;;;;;-0.77;100.00;102885.75;5086182;28;20629;-75
2022/01/15 02:36:24;;;;;;;33.90;5.15;;;;;;;-0.94;100.00;102879.16;5084332;28;20035;-75
2022/01/15 02:38:50;;;;;;;53.38;7.38;;;;;;;-0.82;100.00;102895.50;5086401;28;20024;-75
2022/01/15 02:41:31;;;;;;;41.00;7.38;;;;;;;-0.89;100.00;102893.03;5087761;28;20036;-75
2022/01/15 02:43:59;;;;;;;42.47;6.82;;;;;;;-0.91;100.00;102892.22;5086048;28;20039;-74
2022/01/15 02:48:58;;;;;;;38.53;7.88;;;;;;;-0.92;100.00;102902.72;5086063;28;20073;-88
2022/01/15 02:51:27;;;;;;;44.25;6.18;;;;;;;-0.76;100.00;102901.47;5045876;28;20033;-87
2022/01/15 02:53:56;;;;;;;38.70;6.00;;;;;;;-0.78;100.00;102898.00;5052532;28;20051;-87
2022/01/15 02:56:26;;;;;;;35.28;6.47;;;;;;;-0.83;100.00;102883.28;5060271;28;20072;-87
2022/01/15 02:58:52;;;;;;;33.85;7.45;;;;;;;-0.73;100.00;102904.00;5061580;28;20048;-87
2022/01/15 03:01:18;;;;;;;46.92;8.52;;;;;;;-0.77;100.00;102902.38;5052042;28;20029;-88
2022/01/15 03:03:44;;;;;;;45.95;8.65;;;;;;;-0.82;100.00;102898.13;5034655;28;20029;-87
2022/01/15 03:06:14;;;;;;;30.02;6.32;;;;;;;-0.85;100.00;102907.78;5048056;28;20048;-87
2022/01/15 03:08:41;;;;;;;42.55;6.97;;;;;;;-0.78;100.00;102913.75;5057399;28;20061;-87
2022/01/15 03:11:07;;;;;;;42.55;8.02;;;;;;;-0.70;100.00;102903.94;5039513;28;20057;-87
2022/01/15 03:13:33;;;;;;;;;;;;;;;-0.67;100.00;102903.00;5052050;28;20029;-87
2022/01/15 03:15:59;;;;;;;37.50;5.22;;;;;;;-0.55;100.00;102907.94;5035361;28;19909;-87
2022/01/15 03:18:24;;;;;;;48.60;8.80;;;;;;;-0.58;100.00;102897.53;5043624;28;20024;-87
2022/01/15 03:20:49;;;;;;;43.23;6.50;;;;;;;-0.75;100.00;102887.47;5051867;28;20397;-87
2022/01/15 03:23:15;;;;;;;54.63;8.90;;;;;;;-0.82;100.00;102892.88;5035614;28;20059;-87
2022/01/15 03:25:40;;;;;;;39.90;6.33;;;;;;;-0.89;100.00;102894.78;5035469;28;20049;-87
2022/01/15 03:28:06;;;;;;;64.97;9.13;;;;;;;-0.98;100.00;102888.00;5047930;28;20283;-86
2022/01/15 03:30:32;;;;;;;49.95;5.78;;;;;;;-1.00;100.00;102883.69;5029586;28;20032;-87
2022/01/15 03:32:57;;;;;;;42.33;6.97;;;;;;;-0.82;100.00;102891.13;5048588;28;20131;-87
2022/01/15 03:35:22;;;;;;;38.63;7.15;;;;;;;-0.74;100.00;102893.56;5034049;28;20060;-88
2022/01/15 03:37:48;;;;;;;31.90;5.57;;;;;;;-0.77;100.00;102883.13;5051148;28;20047;-86
2022/01/15 03:40:15;;;;;;;42.27;5.17;;;;;;;-0.76;100.00;102885.72;5033924;28;20264;-87
2022/01/15 03:42:41;;;;;;;52.60;9.27;;;;;;;-0.83;100.00;102885.91;5045024;28;20047;-87
2022/01/15 03:45:07;;;;;;;42.85;7.50;;;;;;;-0.91;100.00;102879.09;5042264;28;20029;-85
2022/01/15 03:47:33;;;;;;;44.33;7.50;;;;;;;-0.94;100.00;102884.38;5031537;28;20037;-87
2022/01/15 03:49:58;;;;;;;33.15;5.55;;;;;;;-0.94;100.00;102889.63;5051002;28;20025;-88
2022/01/15 03:52:24;;;;;;;60.97;8.57;;;;;;;-0.88;100.00;102886.03;5034171;28;20059;-88
2022/01/15 03:54:49;;;;;;;59.58;6.63;;;;;;;-0.93;100.00;102886.13;5050775;28;20305;-88
2022/01/15 03:57:15;;;;;;;53.25;7.25;;;;;;;-0.98;100.00;102885.38;5033826;28;20045;-87
2022/01/15 03:59:41;;;;;;;36.67;6.22;;;;;;;-1.02;100.00;102885.47;5033698;28;20029;-87
2022/01/15 04:02:08;;;;;;;36.42;6.28;;;;;;;-1.09;100.00;102869.88;5041569;28;20060;-87
2022/01/15 04:04:33;;;;;;;36.15;4.60;;;;;;;-1.02;100.00;102883.72;5039472;28;20030;-87
2022/01/15 04:06:59;;;;;;;39.80;7.03;;;;;;;-1.00;100.00;102888.94;5049825;28;20029;-86
2022/01/15 04:09:24;;;;;;;40.03;6.05;;;;;;;-1.09;100.00;102890.00;5033239;28;20028;-87
2022/01/15 04:11:49;;;;;;;23.88;5.93;;;;;;;-1.14;100.00;102899.75;5041210;28;20033;-87
2022/01/15 04:14:15;;;;;;;36.80;6.60;;;;;;;-1.16;100.00;102891.91;5032777;28;20548;-86
2022/01/15 04:16:40;;;;;;;39.63;5.77;;;;;;;-1.10;100.00;102883.91;5033315;28;20873;-86
2022/01/15 04:19:07;;;;;;;58.63;6.55;;;;;;;-1.02;100.00;102890.72;5051092;28;20286;-87
2022/01/15 04:21:34;;;;;;;43.38;7.20;;;;;;;-1.04;100.00;102889.91;5033192;28;20536;-87
2022/01/15 04:23:59;;;;;;;43.03;7.47;;;;;;;-0.83;100.00;102915.63;5049783;28;20025;-86
2022/01/15 04:26:25;;;;;;;37.70;5.75;;;;;;;-0.93;100.00;102903.63;5036675;28;20041;-86
2022/01/15 04:28:53;;;;;;;41.20;5.95;;;;;;;-0.99;100.00;102911.63;5049357;28;20028;-86
2022/01/15 04:31:19;;;;;;;35.17;7.15;;;;;;;-0.97;100.00;102925.56;5032964;28;20056;-87
2022/01/15 04:33:45;;;;;;;24.90;4.53;;;;;;;-0.98;100.00;102924.72;5032659;28;20033;-87
2022/01/15 04:36:11;;;;;;;29.67;3.78;;;;;;;-0.96;100.00;102922.03;5032776;28;20040;-89
2022/01/15 04:38:38;;;;;;;24.70;5.43;;;;;;;-0.99;100.00;102915.09;5049279;28;20025;-88
2022/01/15 04:41:05;;;;;;;34.25;5.75;;;;;;;-0.94;100.00;102910.59;5025031;28;20040;-87
2022/01/15 04:43:31;;;;;;;51.67;6.60;;;;;;;-0.92;100.00;102921.94;5036755;28;20030;-87
2022/01/15 04:45:56;;;;;;;39.83;6.47;;;;;;;-0.93;100.00;102901.88;5037936;28;20033;-86
2022/01/15 04:48:22;;;;;;;35.90;5.22;;;;;;;-0.93;100.00;102901.88;5044572;28;20029;-86
2022/01/15 04:50:47;;;;;;;41.55;6.57;;;;;;;-0.93;100.00;102911.50;5044375;28;20041;-88
2022/01/15 04:53:13;;;;;;;32.70;6.18;;;;;;;-0.92;100.00;102929.81;5041533;28;20023;-87
2022/01/15 04:55:38;;;;;;;32.85;6.10;;;;;;;-0.87;100.00;102925.34;5032677;28;20037;-89
2022/01/15 04:58:05;;;;;;;34.70;5.38;;;;;;;-0.90;100.00;102916.66;5043980;28;20143;-88
2022/01/15 05:00:31;;;;;;;29.08;5.03;;;;;;;-0.95;100.00;102908.03;5056564;28;20029;-87
2022/01/15 05:02:59;;;;;;;36.53;5.97;;;;;;;-0.91;100.00;102923.69;5056814;28;20044;-88
2022/01/15 05:05:26;;;;;;;24.58;6.85;;;;;;;-0.93;100.00;102907.09;5047523;28;20601;-87
2022/01/15 05:07:52;;;;;;;33.95;5.57;;;;;;;-0.88;100.00;102926.22;5056509;28;20386;-88
2022/01/15 05:10:23;;;;;;;29.95;5.55;;;;;;;-0.97;100.00;102900.19;5072788;28;20037;-87
2022/01/15 05:12:50;;;;;;;23.80;6.35;;;;;;;-0.87;100.00;102912.22;5037741;28;20423;-88
2022/01/15 05:15:18;;;;;;;30.55;5.97;;;;;;;-0.91;100.00;102900.06;5049720;28;20037;-88
2022/01/15 05:17:45;;;;;;;38.45;5.63;;;;;;;-0.88;100.00;102900.00;5061795;28;20091;-87
2022/01/15 05:20:12;;;;;;;42.72;6.15;;;;;;;-0.96;100.00;102880.97;5047191;28;20036;-87
2022/01/15 05:22:39;;;;;;;39.50;5.82;;;;;;;-0.98;100.00;102874.91;5055865;28;20220;-89
2022/01/15 05:25:08;;;;;;;32.35;4.53;;;;;;;-0.97;100.00;102879.22;5054055;28;20083;-86
2022/01/15 05:27:36;;;;;;;37.25;4.25;;;;;;;-0.98;100.00;102872.28;5055332;28;20029;-87
2022/01/15 05:30:03;;;;;;;35.55;5.65;;;;;;;-0.93;100.00;102880.03;5035410;28;20021;-87
2022/01/15 05:32:29;;;;;;;34.55;5.22;;;;;;;-0.97;100.00;102868.72;5047518;28;20045;-86
2022/01/15 05:34:54;;;;;;;34.25;4.47;;;;;;;-1.06;100.00;102848.81;5030936;28;20036;-88
2022/01/15 05:37:19;;;;;;;17.80;4.53;;;;;;;-0.97;100.00;102857.41;5032469;28;20126;-86
2022/01/15 05:39:45;;;;;;;36.33;5.83;;;;;;;-1.11;100.00;102828.88;5037379;28;20040;-88
2022/01/15 05:42:10;;;;;;;34.33;5.63;;;;;;;-1.10;100.00;102841.06;5055197;28;20640;-88
2022/01/15 05:44:36;;;;;;;20.25;4.00;;;;;;;-1.08;100.00;102836.66;5063808;22;20259;-81
2022/01/15 05:47:01;;;;;;;31.42;4.75;;;;;;;-1.14;100.00;102821.09;5049404;28;20029;-77
2022/01/15 05:49:29;;;;;;;25.00;4.30;;;;;;;-1.21;100.00;102819.50;5050021;28;20123;-78
2022/01/15 05:51:54;;;;;;;23.02;5.35;;;;;;;-1.21;100.00;102816.91;5019662;28;20032;-79
2022/01/15 05:54:20;;;;;;;32.10;5.28;;;;;;;-1.24;100.00;102816.94;5033851;28;20033;-76
2022/01/15 05:56:45;;;;;;;36.50;7.40;;;;;;;-1.37;100.00;102793.66;5034623;28;20098;-77
2022/01/15 05:59:10;;;;;;;27.37;5.10;;;;;;;-1.38;100.00;102796.28;5016529;28;20109;-79
2022/01/15 06:01:37;;;;;;;42.20;8.40;;;;;;;-1.34;100.00;102801.44;5033134;28;20064;-76
2022/01/15 06:04:03;;;;;;;34.85;7.57;;;;;;;-1.43;100.00;102774.59;5024021;28;20029;-78
2022/01/15 06:06:28;;;;;;;27.52;5.72;;;;;;;-1.37;100.00;102796.28;5031765;28;20080;-79
2022/01/15 06:08:54;;;;;;;32.80;4.53;;;;;;;-1.38;100.00;102791.06;5022566;28;20040;-76
2022/01/15 06:11:19;;;;;;;31.55;7.32;;;;;;;-1.46;100.00;102793.00;5016896;28;20654;-76
2022/01/15 06:13:45;;;;;;;25.73;4.57;;;;;;;-1.36;100.00;102811.13;5008425;28;20036;-77
2022/01/15 06:16:11;;;;;;;35.15;6.47;;;;;;;-1.42;100.00;102813.84;5034089;28;20032;-78
2022/01/15 06:18:37;;;;;;;36.95;6.53;;;;;;;-1.27;100.00;102841.47;5030728;28;20037;-77
2022/01/15 06:21:02;;;;;;;39.38;5.80;;;;;;;-1.37;100.00;102819.00;5017778;28;20021;-78
2022/01/15 06:23:28;;;;;;;34.92;5.20;;;;;;;-1.41;100.00;102809.47;5034067;28;20045;-78
2022/01/15 06:25:53;;;;;;;23.27;6.22;;;;;;;-1.45;100.00;102808.69;5016148;28;20119;-79
2022/01/15 06:28:18;;;;;;;32.88;5.88;;;;;;;-1.41;100.00;102827.81;5028251;28;20463;-76
2022/01/15 06:30:44;;;;;;;23.02;3.50;;;;;;;-1.37;100.00;102838.19;5017412;28;20045;-76
2022/01/15 06:33:09;;;;;;;36.75;4.88;;;;;;;-1.40;100.00;102848.75;5017353;28;20036;-80
2022/01/15 06:35:35;;;;;;;32.55;5.32;;;;;;;-1.43;100.00;102842.69;5033728;28;20056;-76
2022/01/15 06:38:00;;;;;;;29.67;5.13;;;;;;;-1.53;100.00;102827.19;5033755;28;20033;-76
2022/01/15 06:40:26;;;;;;;22.25;4.00;;;;;;;-1.65;100.00;102811.75;5017330;28;20079;-76
2022/01/15 06:42:52;;;;;;;28.52;4.28;;;;;;;-1.71;100.00;102804.00;5032995;28;20120;-80
2022/01/15 06:45:17;;;;;;;25.80;3.53;;;;;;;-1.66;100.00;102817.88;5021156;28;20112;-77
2022/01/15 06:47:43;;;;;;;30.17;5.18;;;;;;;-1.67;100.00;102828.38;5037764;28;20025;-76
2022/01/15 06:50:09;;;;;;;23.63;5.15;;;;;;;-1.74;100.00;102820.66;5028602;28;20025;-76
2022/01/15 06:52:35;;;;;;;;;;;;;;;-1.78;100.00;102805.91;5013510;28;20032;-76
2022/01/15 06:55:02;;;;;;;28.85;4.28;;;;;;;-1.83;100.00;102802.50;5021887;28;20055;-76
2022/01/15 06:57:30;;;;;;;21.27;4.47;;;;;;;-1.88;100.00;102793.91;5012046;28;20013;-78
2022/01/15 07:00:02;;;;;;;37.10;5.97;;;;;;;-1.92;100.00;102792.22;5006296;28;20065;-76
2022/01/15 07:02:30;;;;;;;25.63;3.22;;;;;;;-1.96;100.00;102790.59;5005335;28;20474;-79
2022/01/15 07:04:55;;;;;;;27.42;4.20;;;;;;;-2.02;100.00;102782.84;5018757;28;20064;-76
2022/01/15 07:07:21;;;;;;;24.23;4.75;;;;;;;-2.10;100.00;102776.94;5015250;28;20061;-76
2022/01/15 07:09:46;;;;;;;19.70;4.13;;;;;;;-2.08;100.00;102786.47;5017743;28;20025;-76
2022/01/15 07:12:23;;;;;;;39.83;7.05;;;;;;;-2.01;100.00;102808.16;5036771;28;20651;-77
2022/01/15 07:14:48;;;;;;;33.95;5.32;;;;;;;-1.99;100.00;102811.56;5024870;28;20189;-77
2022/01/15 07:17:14;;;;;;;20.08;5.72;;;;;;;-2.03;100.00;102810.78;5005174;28;20021;-76
2022/01/15 07:19:39;;;;;;;19.00;4.35;;;;;;;-2.02;100.00;102815.13;5010090;28;20049;-76
2022/01/15 07:22:05;;;;;;;23.50;5.78;;;;;;;-2.07;100.00;102813.50;5012441;28;20072;-75
2022/01/15 07:25:02;;;;;;;22.52;5.53;;;;;;;-2.10;100.00;102808.34;5036508;28;20122;-79
2022/01/15 07:27:28;;;;;;;20.67;5.20;;;;;;;-2.04;100.00;102822.13;5025144;28;20059;-76
2022/01/15 07:29:53;;;;;;;30.75;5.75;;;;;;;-2.07;100.00;102831.81;5046441;28;20029;-76
2022/01/15 07:32:18;;;;;;;25.67;5.38;;;;;;;-2.08;100.00;102833.59;5010559;28;20562;-76
2022/01/15 07:34:44;;;;;;;29.30;6.82;;;;;;;-2.20;100.00;102816.38;5032336;28;20041;-76
2022/01/15 07:37:09;;;;;;;21.75;5.75;;;;;;;-2.24;100.00;102804.22;5032326;28;20022;-77
2022/01/15 07:39:35;;;;;;;24.48;4.97;;;;;;;-2.20;100.00;102829.44;5029141;28;20390;-76
2022/01/15 07:42:01;;;;;;;;;;;;;;;-2.08;100.00;102851.00;5011556;28;20116;-76
2022/01/15 07:44:27;;;;;;;45.97;8.52;;;;;;;-1.99;100.00;102861.31;5001008;28;19913;-78
2022/01/15 07:46:54;;;;;;;27.67;6.77;;;;;;;-1.97;100.00;102867.38;5005410;28;20091;-82
2022/01/15 07:49:20;;;;;;;22.92;4.55;;;;;;;-2.00;100.00;102870.94;5002137;28;20280;-78
2022/01/15 07:51:45;;;;;;;30.65;5.97;;;;;;;-1.92;100.00;102876.00;4999589;28;20036;-76
2022/01/15 07:54:11;;;;;;;21.25;6.13;;;;;;;-1.83;100.00;102893.31;5016068;28;20033;-76
2022/01/15 07:56:36;;;;;;;20.65;5.03;;;;;;;-1.71;100.00;102896.56;5018968;28;20063;-78
2022/01/15 07:59:02;;;;;;;35.63;6.35;;;;;;;-1.52;100.00;102918.00;5008556;28;20028;-79
2022/01/15 08:01:28;;;;;;;31.05;4.55;;;;;;;-1.40;100.00;102911.66;5000880;28;20072;-81
2022/01/15 08:03:53;;;;;;;28.55;5.35;;;;;;;-1.35;100.00;102909.78;5023248;28;20034;-77
2022/01/15 08:06:19;;;;;;;20.55;3.90;;;;;;;-1.14;100.00;102920.72;5023187;28;20036;-77
2022/01/15 08:08:44;;;;;;;21.88;4.10;;;;;;;-1.07;100.00;102909.19;5002752;28;20029;-77
2022/01/15 08:11:09;;;;;;;26.88;6.80;;;;;;;-0.94;100.00;102909.75;5010809;28;20033;-76
2022/01/15 08:13:35;;;;;;;22.37;3.77;;;;;;;-0.79;100.00;102913.81;5027447;28;20111;-77
2022/01/15 08:16:02;;;;;;;29.55;4.55;;;;;;;-0.65;100.00;102911.72;5028721;28;20286;-77
2022/01/15 08:18:27;;;;;;;18.52;3.83;;;;;;;-0.59;100.00;102892.31;5006038;28;20696;-78
2022/01/15 08:20:54;;;;;;;32.63;5.15;;;;;;;-0.62;100.00;102869.66;5034859;28;20043;-76
2022/01/15 08:23:25;;;;;;;;;;;;;;;-0.61;100.00;102850.38;5034092;28;20041;-77
2022/01/15 08:25:50;;;;;;;13.80;4.28;;;;;;;-0.62;100.00;102832.91;4991503;28;19935;-78
2022/01/15 08:28:17;;;;;;;19.27;5.60;;;;;;;-0.40;100.00;102838.47;5000439;28;20814;-77
2022/01/15 08:30:43;;;;;;;35.75;4.93;;;;;;;-0.25;100.00;102826.72;5004262;28;20075;-78
2022/01/15 08:33:13;;;;;;;31.55;5.15;;;;;;;0.27;100.00;102838.38;5019956;28;20514;-82
2022/01/15 08:35:38;;;;;;;15.55;4.47;;;;;;;0.74;100.00;102836.06;5013486;28;20025;-77
2022/01/15 08:38:04;;;;;;;18.35;4.43;;;;;;;1.20;100.00;102812.69;5012519;28;20030;-78
2022/01/15 08:40:32;;;;;;;24.23;4.32;;;;;;;1.50;100.00;102776.56;5010558;28;20067;-80
2022/01/15 08:42:58;;;;;;;36.70;7.32;;;;;;;1.70;100.00;102733.72;5015759;28;20032;-80
2022/01/15 08:45:23;;;;;;;14.35;3.97;;;;;;;2.35;100.00;102758.47;5020453;28;20033;-77
2022/01/15 08:47:49;;;;;;;22.52;4.65;;;;;;;2.95;100.00;102743.72;5006615;28;20037;-77
2022/01/15 08:50:17;;;;;;;29.23;5.00;;;;;;;3.58;100.00;102721.66;5031140;28;20020;-77
2022/01/15 08:52:43;;;;;;;20.60;5.50;;;;;;;4.02;100.00;102689.69;5030998;28;20352;-80
2022/01/15 08:55:09;;;;;;;16.73;4.28;;;;;;;4.47;100.00;102661.09;5014372;28;20413;-78
2022/01/15 08:57:35;;;;;;;24.55;3.83;;;;;;;4.68;100.00;102630.06;5021753;28;20064;-76
2022/01/15 09:00:00;;;;;;;21.20;5.38;;;;;;;4.78;100.00;102605.72;5008731;28;20470;-77
2022/01/15 09:02:26;;;;;;;27.45;5.18;;;;;;;5.01;100.00;102582.47;5030730;28;20041;-78
2022/01/15 09:04:52;;;;;;;23.47;5.20;;;;;;;4.91;100.00;102568.00;5031180;28;20032;-80
2022/01/15 09:07:19;;;;;;;22.15;4.95;;;;;;;5.55;100.00;102584.84;5014711;28;20291;-79
2022/01/15 09:09:44;;;;;;;;;;;;;;;5.96;100.00;102557.84;5015276;28;20069;-79
2022/01/15 09:12:11;;;;;;;25.00;6.35;;;;;;;6.33;100.00;102517.63;5028265;28;20007;-77
2022/01/15 09:14:38;;;;;;;21.55;5.43;;;;;;;6.20;100.00;102484.81;5007592;28;20053;-80
2022/01/15 09:17:03;;;;;;;28.40;4.75;;;;;;;6.29;96.14;102431.19;5013289;28;20029;-77
2022/01/15 09:19:29;;;;;;;16.60;4.35;;;;;;;6.75;94.07;102409.78;5008621;28;20090;-78
2022/01/15 09:21:54;;;;;;;14.03;4.23;;;;;;;7.19;90.41;102354.78;5031480;28;20110;-77
2022/01/15 09:24:19;;;;;;;17.67;4.20;;;;;;;7.04;85.27;102228.28;5012683;28;20072;-78
2022/01/15 09:32:06;;;;;;;21.20;5.03;;;;;;;7.93;77.52;102042.13;5015772;28;20386;-77
2022/01/15 09:34:34;;;;;;;27.27;5.43;;;;;;;8.39;75.90;102022.72;5029191;28;20037;-78
2022/01/15 09:37:00;;;;;;;19.23;5.10;;;;;;;8.98;74.10;101991.59;5028802;28;20017;-79
2022/01/15 09:39:27;;;;;;;;;;;;;;;9.36;71.61;101911.22;5045713;28;20072;-79
2022/01/15 09:41:54;;;;;;;17.95;4.00;;;;;;;9.20;70.05;101841.50;5011419;28;19917;-79
2022/01/15 09:44:22;;;;;;;24.33;4.03;;;;;;;9.45;69.00;101819.00;5030889;28;20029;-79
2022/01/15 09:46:48;;;;;;;20.65;4.75;;;;;;;9.51;67.94;101770.50;5031400;28;20038;-80
2022/01/15 09:49:15;;;;;;;31.88;5.50;;;;;;;9.27;67.54;101726.31;5029811;28;20078;-80
2022/01/15 09:51:42;;;;;;;31.23;5.55;;;;;;;9.32;67.29;101738.38;5021541;28;20089;-79
2022/01/15 09:54:07;;;;;;;13.55;4.68;;;;;;;9.33;67.13;101724.09;5025755;28;20503;-80
2022/01/15 09:56:33;;;;;;;17.13;3.67;;;;;;;9.56;66.27;101701.63;5015117;28;20030;-80
2022/01/15 09:59:00;;;;;;;24.90;3.97;;;;;;;9.60;66.32;101726.19;5013241;28;20020;-80
2022/01/15 10:01:30;;;;;;;24.80;5.50;;;;;;;9.58;65.30;101659.69;5020347;28;20499;-79
2022/01/15 10:03:57;;;;;;;21.50;4.72;;;;;;;9.53;65.36;101661.94;5015604;28;20042;-80
2022/01/15 10:06:22;;;;;;;23.33;4.93;;;;;;;9.86;65.11;101695.47;5035894;28;20035;-80
2022/01/15 10:09:08;;;;;;;36.33;5.77;;;;;;;9.87;64.54;101637.63;5018491;28;20108;-80
2022/01/15 10:11:45;;;;;;;24.80;5.97;;;;;;;9.48;63.96;101568.16;5031528;28;20528;-79
2022/01/15 10:14:27;;;;;;;32.28;5.20;;;;;;;9.78;64.69;101654.44;5001649;28;20024;-79
2022/01/15 10:16:55;;;;;;;21.08;6.22;;;;;;;9.88;63.66;101612.63;5006470;28;20037;-79
2022/01/15 10:19:36;;;;;;;16.50;5.03;;;;;;;10.14;63.13;101607.66;5024804;28;20029;-78
2022/01/15 10:22:12;;;;;;;19.25;4.57;;;;;;;10.50;62.09;101597.28;5008117;28;20020;-79
2022/01/15 10:24:39;;;;;;;21.05;5.38;;;;;;;10.48;61.45;101546.69;5014144;28;20056;-79
2022/01/15 10:27:23;;;;;;;29.75;5.53;;;;;;;10.37;61.39;101538.81;5051517;28;20163;-79
2022/01/15 10:30:12;;;;;;;20.13;3.78;;;;;;;10.67;60.44;101505.75;5033872;28;20057;-80
2022/01/15 10:32:40;;;;;;;25.92;5.53;;;;;;;10.63;60.19;101483.03;5000697;28;20045;-78
2022/01/15 10:35:10;;;;;;;22.58;4.10;;;;;;;10.89;60.11;101527.78;5033310;28;20453;-79
2022/01/15 10:37:48;;;;;;;21.75;4.20;;;;;;;10.50;59.78;101453.94;5014230;28;20493;-79
2022/01/15 10:40:14;;;;;;;20.90;6.00;;;;;;;10.03;60.02;101402.34;5009765;28;20048;-78
2022/01/15 10:42:41;;;;;;;21.67;4.38;;;;;;;10.20;60.27;101478.97;5016242;28;20041;-80
2022/01/15 10:45:12;;;;;;;21.88;3.75;;;;;;;9.77;60.96;101439.41;5015528;28;20032;-79
2022/01/15 10:47:44;;;;;;;23.92;5.00;;;;;;;9.62;61.34;101431.84;5028231;28;20091;-80
2022/01/15 10:50:18;;;;;;;28.23;6.78;;;;;;;10.03;61.42;101528.56;5016721;28;20029;-80
2022/01/15 10:52:44;;;;;;;23.40;4.70;;;;;;;10.27;60.55;101492.59;5030707;28;20029;-79
2022/01/15 10:55:11;;;;;;;23.47;5.37;;;;;;;10.10;60.43;101464.81;5033534;28;20080;-80
2022/01/15 10:57:45;;;;;;;18.50;3.55;;;;;;;10.66;60.19;101536.13;5012778;28;20821;-80
2022/01/15 11:00:11;;;;;;;26.35;4.00;;;;;;;11.05;58.68;101457.66;5030907;28;20029;-79
2022/01/15 11:02:41;;;;;;;23.85;4.55;;;;;;;10.70;58.37;101368.41;5012410;28;20032;-80
2022/01/15 11:05:31;;;;;;;15.50;4.40;;;;;;;10.72;58.35;101366.44;5019616;28;20036;-79
2022/01/15 11:08:04;;;;;;;19.33;3.72;;;;;;;10.85;57.82;101361.59;5013976;28;20071;-79
2022/01/15 11:10:41;;;;;;;22.42;4.35;;;;;;;10.91;58.32;101398.41;5014773;28;20101;-79
2022/01/15 11:13:10;;;;;;;24.65;4.15;;;;;;;11.30;57.68;101411.53;5017095;28;20899;-79
2022/01/15 11:15:36;;;;;;;13.32;3.38;;;;;;;11.22;57.03;101335.78;5027321;28;20545;-79
2022/01/15 11:18:03;;;;;;;25.10;4.00;;;;;;;10.96;57.28;101305.28;4993832;28;20144;-79
2022/01/15 11:20:33;;;;;;;19.80;3.90;;;;;;;10.77;57.21;101273.38;5016438;28;20045;-80
2022/01/15 11:23:02;;;;;;;12.93;3.50;;;;;;;10.93;57.60;101326.13;5012352;28;20032;-79
2022/01/15 11:25:29;;;;;;;32.55;5.22;;;;;;;10.66;57.15;101242.38;5023251;28;20521;-80
2022/01/15 11:27:56;;;;;;;26.20;4.55;;;;;;;10.78;57.43;101297.25;5029422;28;20040;-79
2022/01/15 11:30:23;;;;;;;22.17;3.75;;;;;;;10.23;58.01;101259.03;5042237;28;20081;-79
2022/01/15 11:32:49;;;;;;;15.82;4.85;;;;;;;10.33;58.30;101291.91;5027589;28;20071;-79
2022/01/15 11:35:15;;;;;;;;;;;;;;;10.44;58.77;101374.47;5016989;28;20051;-79
2022/01/15 11:37:42;;;;;;;;;;;;;;;10.49;57.94;101318.78;5010705;28;19913;-79